Time;durP1;ratioP1;P1;durP2;ratioP2;P2;SDS_P1;SDS_P2;PMS_P1;PMS_P2;Temp;Humidity;BMP_temperature;BMP_pressure;BME280_temperature;BME280_humidity;BME280_pressure;Samples;Min_cycle;Max_cycle;Signal;HPM_P1;HPM_P2
2023/12/03 00:00:19;;;;;;;24.80;15.30;;;2.30;99.90;;;;;;4895507;29;20294;-68
2023/12/03 00:02:48;;;;;;;28.40;16.37;;;2.40;99.90;;;;;;4895367;29;20301;-66
2023/12/03 00:05:16;;;;;;;27.07;16.67;;;2.30;99.90;;;;;;4895390;29;20201;-67
2023/12/03 00:07:45;;;;;;;30.07;15.87;;;2.30;99.90;;;;;;4895264;29;20206;-65
2023/12/03 00:10:14;;;;;;;25.83;15.23;;;2.30;99.90;;;;;;4895203;29;20668;-69
2023/12/03 00:12:44;;;;;;;26.30;15.47;;;2.30;99.90;;;;;;4894990;29;20209;-63
2023/12/03 00:15:12;;;;;;;26.50;14.83;;;2.30;99.90;;;;;;4895230;29;20698;-64
2023/12/03 00:17:42;;;;;;;24.10;15.00;;;2.20;99.90;;;;;;4895038;29;20209;-69
2023/12/03 00:20:11;;;;;;;25.33;16.57;;;2.10;99.90;;;;;;4895204;29;20640;-67
2023/12/03 00:22:40;;;;;;;22.07;13.63;;;2.00;99.90;;;;;;4894993;29;20208;-62
2023/12/03 00:25:09;;;;;;;22.40;13.60;;;2.10;99.90;;;;;;4894988;29;20242;-69
2023/12/03 00:27:38;;;;;;;39.80;21.13;;;2.10;99.90;;;;;;4894817;29;20204;-69
2023/12/03 00:30:07;;;;;;;26.83;16.40;;;2.20;99.90;;;;;;4894917;29;20210;-68
2023/12/03 00:32:35;;;;;;;23.07;14.00;;;2.20;99.90;;;;;;4895033;29;20367;-68
2023/12/03 00:35:06;;;;;;;21.30;13.30;;;2.20;99.90;;;;;;4894842;29;20196;-68
2023/12/03 00:37:34;;;;;;;22.33;13.70;;;2.20;99.90;;;;;;4895012;29;20286;-66
2023/12/03 00:40:03;;;;;;;21.30;13.57;;;2.20;99.90;;;;;;4894751;29;20203;-69
2023/12/03 00:42:31;;;;;;;24.30;13.27;;;2.20;99.90;;;;;;4894521;29;20227;-64
2023/12/03 00:44:59;;;;;;;21.97;12.90;;;2.20;99.90;;;;;;4894955;29;20239;-70
2023/12/03 00:47:27;;;;;;;17.17;11.63;;;2.20;99.90;;;;;;4894813;29;20197;-61
2023/12/03 00:49:56;;;;;;;18.73;12.10;;;2.30;99.90;;;;;;4894594;29;20932;-67
2023/12/03 00:52:25;;;;;;;19.57;12.90;;;2.30;99.90;;;;;;4894752;29;20201;-69
2023/12/03 00:54:54;;;;;;;18.73;11.93;;;2.30;99.90;;;;;;4894426;29;20286;-63
2023/12/03 00:57:22;;;;;;;19.57;12.20;;;2.30;99.90;;;;;;4894364;29;20635;-69
2023/12/03 00:59:50;;;;;;;17.63;11.90;;;2.20;99.90;;;;;;4894677;29;20220;-66
2023/12/03 01:02:19;;;;;;;19.07;12.10;;;2.20;99.90;;;;;;4894080;29;20197;-66
2023/12/03 01:04:47;;;;;;;18.30;11.63;;;2.20;99.90;;;;;;4894414;29;20288;-62
2023/12/03 01:07:15;;;;;;;17.43;11.30;;;2.20;99.90;;;;;;4894486;29;20605;-62
2023/12/03 01:09:45;;;;;;;18.57;12.33;;;2.20;99.90;;;;;;4893932;29;20689;-60
2023/12/03 01:12:13;;;;;;;17.10;11.03;;;2.20;99.90;;;;;;4894111;29;20227;-61
2023/12/03 01:14:42;;;;;;;16.60;10.50;;;2.30;99.90;;;;;;4894234;29;20328;-64
2023/12/03 01:17:10;;;;;;;13.43;9.43;;;2.30;99.90;;;;;;4894187;29;20675;-67
2023/12/03 01:19:38;;;;;;;17.17;10.77;;;2.10;99.90;;;;;;4894223;29;20209;-63
2023/12/03 01:22:07;;;;;;;15.53;10.57;;;2.10;99.90;;;;;;4893945;29;20733;-62
2023/12/03 01:24:35;;;;;;;15.53;10.33;;;2.00;99.90;;;;;;4893724;29;20228;-61
2023/12/03 01:27:06;;;;;;;17.20;11.20;;;2.00;99.90;;;;;;4893715;29;20692;-68
2023/12/03 01:29:34;;;;;;;18.67;11.83;;;2.00;99.90;;;;;;4893856;29;20711;-61
2023/12/03 01:32:03;;;;;;;17.03;10.97;;;1.90;99.90;;;;;;4893758;29;20280;-61
2023/12/03 01:34:31;;;;;;;15.17;10.60;;;1.90;99.90;;;;;;4893918;29;20211;-66
2023/12/03 01:37:00;;;;;;;18.57;10.70;;;2.00;99.90;;;;;;4893969;29;20282;-67
2023/12/03 01:39:28;;;;;;;14.10;10.47;;;2.00;99.90;;;;;;4893768;29;20223;-61
2023/12/03 01:41:56;;;;;;;15.93;9.93;;;2.00;99.90;;;;;;4893819;29;20249;-68
2023/12/03 01:44:26;;;;;;;15.97;10.17;;;2.00;99.90;;;;;;4893778;29;20243;-68
2023/12/03 01:46:54;;;;;;;15.47;10.00;;;2.00;99.90;;;;;;4893652;29;20715;-61
2023/12/03 01:49:23;;;;;;;15.73;9.80;;;2.00;99.90;;;;;;4893688;29;20204;-63
2023/12/03 01:51:51;;;;;;;15.90;10.10;;;2.10;99.90;;;;;;4893654;29;20574;-64
2023/12/03 01:54:20;;;;;;;15.60;10.20;;;2.10;99.90;;;;;;4893516;29;20671;-63
2023/12/03 01:56:48;;;;;;;15.63;10.30;;;2.20;99.90;;;;;;4893304;29;20722;-61
2023/12/03 01:59:17;;;;;;;16.17;10.47;;;2.20;99.90;;;;;;4893539;29;20203;-61
2023/12/03 02:01:47;;;;;;;15.03;9.43;;;2.30;99.90;;;;;;4893495;29;20208;-60
2023/12/03 02:04:15;;;;;;;17.07;10.50;;;2.40;99.90;;;;;;4893381;29;20234;-60
2023/12/03 02:06:43;;;;;;;15.80;10.60;;;2.40;99.90;;;;;;4893462;29;20246;-60
2023/12/03 02:09:14;;;;;;;13.93;10.00;;;2.40;99.90;;;;;;4893150;29;20301;-68
2023/12/03 02:11:43;;;;;;;13.17;9.53;;;2.40;99.90;;;;;;4893517;29;20200;-64
2023/12/03 02:14:12;;;;;;;11.17;8.60;;;2.40;99.90;;;;;;4895203;29;20205;-60
2023/12/03 02:16:47;;;;;;;9.83;8.00;;;2.40;99.90;;;;;;4897352;29;20208;-61
2023/12/03 02:19:16;;;;;;;12.73;7.93;;;2.40;99.90;;;;;;4896997;29;20218;-59
2023/12/03 02:21:44;;;;;;;11.93;8.57;;;2.30;99.90;;;;;;4897335;29;20694;-67
2023/12/03 02:24:14;;;;;;;10.37;7.33;;;2.30;99.90;;;;;;4897114;29;20659;-59
2023/12/03 02:26:42;;;;;;;9.93;7.73;;;2.30;99.90;;;;;;4897061;29;20212;-59
2023/12/03 02:29:11;;;;;;;8.90;7.10;;;2.30;99.90;;;;;;4897138;29;20211;-63
2023/12/03 02:31:39;;;;;;;10.20;7.00;;;2.20;99.90;;;;;;4897047;29;20204;-65
2023/12/03 02:34:09;;;;;;;8.90;6.97;;;2.20;99.90;;;;;;4897005;29;20203;-60
2023/12/03 02:36:38;;;;;;;8.23;6.30;;;2.20;99.90;;;;;;4896824;29;20688;-58
2023/12/03 02:39:07;;;;;;;6.93;5.33;;;2.30;99.90;;;;;;4896655;29;20645;-58
2023/12/03 02:41:36;;;;;;;5.03;4.17;;;2.30;99.90;;;;;;4896896;29;20228;-59
2023/12/03 02:44:05;;;;;;;5.17;4.30;;;2.30;99.90;;;;;;4896475;29;20200;-63
2023/12/03 02:46:33;;;;;;;4.10;3.70;;;2.20;99.90;;;;;;4896640;29;20209;-59
2023/12/03 02:49:01;;;;;;;3.30;3.00;;;2.30;99.90;;;;;;4896756;29;20224;-59
2023/12/03 02:51:30;;;;;;;3.57;3.27;;;2.30;99.90;;;;;;4896885;29;20200;-59
2023/12/03 02:53:58;;;;;;;3.10;2.80;;;2.30;99.90;;;;;;4896931;29;20204;-60
2023/12/03 02:56:26;;;;;;;3.37;2.70;;;2.30;99.90;;;;;;4896808;29;20695;-61
2023/12/03 02:58:56;;;;;;;2.67;2.53;;;2.30;99.90;;;;;;4896495;29;20205;-67
2023/12/03 03:01:24;;;;;;;2.57;2.37;;;2.30;99.90;;;;;;4896461;29;20201;-67
2023/12/03 03:03:53;;;;;;;14.27;9.33;;;2.40;99.90;;;;;;4879625;29;20224;-66
2023/12/03 03:06:21;;;;;;;6.87;5.13;;;2.40;99.90;;;;;;4896303;29;20284;-67
2023/12/03 03:08:51;;;;;;;4.30;3.90;;;2.40;99.90;;;;;;4896034;29;20231;-69
2023/12/03 03:11:20;;;;;;;3.23;3.00;;;2.40;99.90;;;;;;4896324;29;20690;-67
2023/12/03 03:13:48;;;;;;;3.20;2.83;;;2.50;99.90;;;;;;4895964;29;20712;-67
2023/12/03 03:16:18;;;;;;;2.73;2.53;;;2.40;99.90;;;;;;4896384;29;21001;-67
2023/12/03 03:18:46;;;;;;;3.47;3.03;;;2.40;99.90;;;;;;4896173;29;20212;-65
2023/12/03 03:21:14;;;;;;;3.53;3.27;;;2.30;99.90;;;;;;4896320;29;20211;-67
2023/12/03 03:23:43;;;;;;;3.13;2.93;;;2.30;99.90;;;;;;4896222;29;20215;-69
2023/12/03 03:26:11;;;;;;;2.73;2.53;;;2.30;99.90;;;;;;4895691;29;20256;-69
2023/12/03 03:28:39;;;;;;;2.93;2.60;;;2.30;99.90;;;;;;4896006;29;20223;-68
2023/12/03 03:31:08;;;;;;;3.13;2.90;;;2.30;99.90;;;;;;4896348;29;20208;-68
2023/12/03 03:33:37;;;;;;;3.07;2.87;;;2.30;99.90;;;;;;4896167;29;20210;-64
2023/12/03 03:36:06;;;;;;;3.60;3.30;;;2.30;99.90;;;;;;4895839;29;20517;-66
2023/12/03 03:38:35;;;;;;;3.50;3.20;;;2.30;99.90;;;;;;4895761;29;20212;-65
2023/12/03 03:41:04;;;;;;;3.80;3.40;;;2.40;99.90;;;;;;4895569;29;20208;-67
2023/12/03 03:43:33;;;;;;;4.53;4.10;;;2.40;99.90;;;;;;4895442;29;20197;-62
2023/12/03 03:46:01;;;;;;;6.30;4.60;;;2.40;99.90;;;;;;4895627;29;20223;-66
2023/12/03 03:48:30;;;;;;;5.30;4.63;;;2.30;99.90;;;;;;4895601;29;20208;-67
2023/12/03 03:51:00;;;;;;;5.27;4.77;;;2.20;99.90;;;;;;4895653;29;20572;-65
2023/12/03 03:53:28;;;;;;;5.20;4.50;;;2.10;99.90;;;;;;4895575;29;20196;-68
2023/12/03 03:55:56;;;;;;;5.33;4.83;;;2.10;99.90;;;;;;4895796;29;20204;-67
2023/12/03 03:58:24;;;;;;;5.37;4.87;;;2.00;99.90;;;;;;4895718;29;20207;-62
2023/12/03 04:00:53;;;;;;;6.30;4.73;;;1.90;99.90;;;;;;4895721;29;20371;-66
2023/12/03 04:03:21;;;;;;;4.80;4.40;;;1.80;99.90;;;;;;4895611;29;20322;-63
2023/12/03 04:05:49;;;;;;;4.90;4.40;;;1.80;99.90;;;;;;4895538;29;20305;-67
2023/12/03 04:08:19;;;;;;;5.00;4.13;;;1.80;99.90;;;;;;4895234;29;20231;-66
2023/12/03 04:10:48;;;;;;;8.73;5.27;;;1.90;99.90;;;;;;4895278;29;20215;-68
2023/12/03 04:13:16;;;;;;;5.13;4.70;;;2.00;99.90;;;;;;4895018;29;20201;-65
2023/12/03 04:15:44;;;;;;;5.70;4.20;;;1.90;99.90;;;;;;4895225;29;20205;-66
2023/12/03 04:18:13;;;;;;;4.53;4.00;;;1.90;99.90;;;;;;4895153;29;20256;-67
2023/12/03 04:20:41;;;;;;;4.80;4.40;;;1.90;99.90;;;;;;4895333;29;20214;-68
2023/12/03 04:23:09;;;;;;;4.53;4.13;;;2.00;99.90;;;;;;4895033;29;20208;-66
2023/12/03 04:25:39;;;;;;;6.13;4.63;;;1.90;99.90;;;;;;4894821;29;20232;-64
2023/12/03 04:28:07;;;;;;;5.00;4.50;;;1.90;99.90;;;;;;4894709;29;20208;-67
2023/12/03 04:30:36;;;;;;;4.90;4.50;;;1.80;99.90;;;;;;4894988;29;20203;-67
2023/12/03 04:33:04;;;;;;;5.73;3.97;;;1.80;99.90;;;;;;4894793;29;20204;-66
2023/12/03 04:35:33;;;;;;;4.63;4.23;;;1.70;99.90;;;;;;4894800;29;20630;-65
2023/12/03 04:38:01;;;;;;;5.63;4.07;;;1.60;99.90;;;;;;4894282;29;20212;-69
2023/12/03 04:40:29;;;;;;;5.03;4.20;;;1.60;99.90;;;;;;4894751;29;20215;-68
2023/12/03 04:42:59;;;;;;;4.50;4.10;;;1.50;99.90;;;;;;4894700;29;20205;-67
2023/12/03 04:45:27;;;;;;;4.57;4.10;;;1.50;99.90;;;;;;4894489;29;20591;-68
2023/12/03 04:47:55;;;;;;;4.47;4.00;;;1.50;99.90;;;;;;4894495;29;20216;-67
2023/12/03 04:50:24;;;;;;;4.60;4.00;;;1.50;99.90;;;;;;4894153;29;20207;-68
2023/12/03 04:52:52;;;;;;;4.67;4.00;;;1.50;99.90;;;;;;4894678;29;20268;-68
2023/12/03 04:55:20;;;;;;;5.23;3.87;;;1.60;99.90;;;;;;4877632;29;20648;-68
2023/12/03 04:57:49;;;;;;;4.77;4.37;;;1.60;99.90;;;;;;4894218;29;20195;-64
2023/12/03 05:00:19;;;;;;;4.33;3.93;;;1.50;99.90;;;;;;4894374;29;20667;-64
2023/12/03 05:02:47;;;;;;;4.10;3.67;;;1.40;99.90;;;;;;4894351;29;20698;-68
2023/12/03 05:05:16;;;;;;;3.87;3.47;;;1.40;99.90;;;;;;4894341;29;20197;-68
2023/12/03 05:07:44;;;;;;;4.50;4.03;;;1.30;99.90;;;;;;4894475;29;20211;-68
2023/12/03 05:10:13;;;;;;;4.63;4.10;;;1.30;99.90;;;;;;4894765;29;20373;-68
2023/12/03 05:12:41;;;;;;;5.47;3.83;;;1.10;99.90;;;;;;4894374;29;20195;-68
2023/12/03 05:15:10;;;;;;;5.77;4.40;;;1.10;99.90;;;;;;4894071;29;20704;-67
2023/12/03 05:17:41;;;;;;;4.20;3.80;;;1.00;99.90;;;;;;4894034;29;20213;-69
2023/12/03 05:20:10;;;;;;;4.70;4.13;;;1.00;99.90;;;;;;4894099;29;20584;-67
2023/12/03 05:22:39;;;;;;;4.87;3.57;;;0.90;99.90;;;;;;4894140;29;20312;-68
2023/12/03 05:25:08;;;;;;;5.53;4.30;;;0.90;99.90;;;;;;4893854;29;20319;-68
2023/12/03 05:27:37;;;;;;;3.93;3.53;;;0.80;99.90;;;;;;4893760;29;20240;-67
2023/12/03 05:30:07;;;;;;;6.03;4.40;;;0.70;99.90;;;;;;4893881;29;20310;-68
2023/12/03 05:32:36;;;;;;;4.53;4.13;;;0.80;99.90;;;;;;4893909;29;20869;-68
2023/12/03 05:35:06;;;;;;;4.93;4.43;;;0.70;99.90;;;;;;4894147;29;20694;-68
2023/12/03 05:37:34;;;;;;;6.33;3.97;;;0.80;99.90;;;;;;4893670;29;20214;-68
2023/12/03 05:40:04;;;;;;;4.60;3.80;;;0.80;99.90;;;;;;4893783;29;20204;-68
2023/12/03 05:42:32;;;;;;;4.33;3.73;;;0.80;99.90;;;;;;4893833;29;20204;-66
2023/12/03 05:45:00;;;;;;;4.80;4.33;;;0.80;99.90;;;;;;4893729;29;20196;-68
2023/12/03 05:47:29;;;;;;;5.03;4.13;;;0.70;99.90;;;;;;4893561;29;20234;-67
2023/12/03 05:49:59;;;;;;;6.07;3.87;;;0.80;99.90;;;;;;4894042;29;20203;-67
2023/12/03 05:52:29;;;;;;;4.20;3.67;;;0.80;99.90;;;;;;4893857;29;20203;-63
2023/12/03 05:54:57;;;;;;;4.43;4.03;;;0.80;99.90;;;;;;4893796;29;20238;-68
2023/12/03 05:57:26;;;;;;;5.03;4.57;;;0.80;99.90;;;;;;4893654;29;20220;-68
2023/12/03 05:59:54;;;;;;;4.07;3.67;;;0.70;99.90;;;;;;4893649;29;20199;-67
2023/12/03 06:02:23;;;;;;;4.13;3.73;;;0.70;99.90;;;;;;4893882;29;20225;-62
2023/12/03 06:04:51;;;;;;;4.60;4.20;;;0.70;99.90;;;;;;4893799;29;20201;-69
2023/12/03 06:07:19;;;;;;;5.67;4.27;;;0.60;99.90;;;;;;4893544;29;20286;-67
2023/12/03 06:09:49;;;;;;;4.40;4.00;;;0.60;99.90;;;;;;4893474;29;20234;-67
2023/12/03 06:12:17;;;;;;;5.33;4.00;;;0.50;99.90;;;;;;4893618;29;20286;-66
2023/12/03 06:14:46;;;;;;;4.63;4.07;;;0.40;99.90;;;;;;4893387;29;20670;-66
2023/12/03 06:17:14;;;;;;;4.87;4.37;;;0.30;99.90;;;;;;4893652;29;20199;-67
2023/12/03 06:19:42;;;;;;;6.03;4.17;;;0.20;99.90;;;;;;4893527;29;20251;-64
2023/12/03 06:22:11;;;;;;;4.87;3.90;;;0.30;99.90;;;;;;4893453;29;20273;-67
2023/12/03 06:24:39;;;;;;;4.70;4.30;;;0.30;99.90;;;;;;4893477;29;20207;-67
2023/12/03 06:27:09;;;;;;;4.33;3.93;;;0.20;99.90;;;;;;4893566;29;20219;-68
2023/12/03 06:29:37;;;;;;;3.97;2.97;;;0.20;99.90;;;;;;4893462;29;20734;-67
2023/12/03 06:32:06;;;;;;;3.80;3.47;;;0.20;99.90;;;;;;4893339;29;20700;-67
2023/12/03 06:34:34;;;;;;;3.40;3.10;;;0.20;99.90;;;;;;4893725;29;20287;-68
2023/12/03 06:37:04;;;;;;;4.37;3.60;;;0.30;99.90;;;;;;4893675;29;20306;-68
2023/12/03 06:39:32;;;;;;;4.17;3.67;;;0.40;99.90;;;;;;4893552;29;20295;-68
2023/12/03 06:42:01;;;;;;;6.00;4.17;;;0.40;99.90;;;;;;4893600;29;20203;-67
2023/12/03 06:44:31;;;;;;;4.77;3.93;;;0.40;99.90;;;;;;4893626;29;20204;-68
2023/12/03 06:47:05;;;;;;;4.60;3.70;;;0.40;99.90;;;;;;4893780;29;20310;-66
2023/12/03 06:49:33;;;;;;;5.40;3.67;;;0.40;99.90;;;;;;4893652;29;21011;-65
2023/12/03 06:52:01;;;;;;;4.87;3.80;;;0.40;99.90;;;;;;4893481;29;20210;-67
2023/12/03 06:54:30;;;;;;;4.17;3.57;;;0.50;99.90;;;;;;4893116;29;20286;-68
2023/12/03 06:56:58;;;;;;;5.13;4.00;;;0.50;99.90;;;;;;4893282;29;20531;-68
2023/12/03 06:59:26;;;;;;;4.67;4.10;;;0.50;99.90;;;;;;4893687;29;20207;-69
2023/12/03 07:01:56;;;;;;;6.13;4.17;;;0.50;99.90;;;;;;4896599;29;20204;-65
2023/12/03 07:04:24;;;;;;;4.67;3.90;;;0.50;99.90;;;;;;4896452;29;20199;-67
2023/12/03 07:06:52;;;;;;;4.60;3.80;;;0.60;99.90;;;;;;4896242;29;20641;-68
2023/12/03 07:09:22;;;;;;;6.37;4.40;;;0.70;99.90;;;;;;4896212;29;20331;-68
2023/12/03 07:12:02;;;;;;;4.43;4.03;;;0.60;99.90;;;;;;4896201;29;20239;-68
2023/12/03 07:14:31;;;;;;;4.80;4.30;;;0.60;99.90;;;;;;4896118;29;20213;-68
2023/12/03 07:17:00;;;;;;;5.47;4.23;;;0.70;99.90;;;;;;4896206;29;20199;-69
2023/12/03 07:19:28;;;;;;;4.47;3.60;;;0.70;99.90;;;;;;4896055;29;20207;-68
2023/12/03 07:21:57;;;;;;;4.27;3.83;;;0.80;99.90;;;;;;4896166;29;20690;-68
2023/12/03 07:24:25;;;;;;;3.97;3.67;;;0.80;99.90;;;;;;4896057;29;20212;-68
2023/12/03 07:26:54;;;;;;;3.67;3.37;;;0.80;99.90;;;;;;4895901;29;20318;-70
2023/12/03 07:29:22;;;;;;;4.87;4.00;;;0.70;99.90;;;;;;4895638;29;20303;-69
2023/12/03 07:31:51;;;;;;;4.20;3.80;;;0.70;99.90;;;;;;4895862;29;20212;-69
2023/12/03 07:34:20;;;;;;;4.97;3.97;;;0.80;99.90;;;;;;4895821;29;20196;-67
2023/12/03 07:36:49;;;;;;;3.93;3.53;;;0.90;99.90;;;;;;4878840;29;20655;-69
2023/12/03 07:39:17;;;;;;;4.77;4.20;;;0.90;99.90;;;;;;4895801;29;20186;-70
2023/12/03 07:41:51;;;;;;;4.60;4.20;;;0.90;99.90;;;;;;4878919;29;20301;-69
2023/12/03 07:44:20;;;;;;;3.83;3.53;;;0.90;99.90;;;;;;4895706;29;20208;-66
2023/12/03 07:46:48;;;;;;;4.33;3.87;;;1.00;99.90;;;;;;4895496;29;20200;-65
2023/12/03 07:49:17;;;;;;;6.03;4.60;;;0.90;99.90;;;;;;4895847;29;20208;-69
2023/12/03 07:51:48;;;;;;;6.37;5.57;;;0.90;99.90;;;;;;4896081;29;20303;-63
2023/12/03 07:54:17;;;;;;;7.57;5.40;;;1.00;99.90;;;;;;4895972;29;20205;-71
2023/12/03 07:56:45;;;;;;;9.23;5.43;;;1.00;99.90;;;;;;4895900;29;20203;-69
2023/12/03 07:59:14;;;;;;;6.23;5.17;;;1.10;99.90;;;;;;4895561;29;20637;-65
2023/12/03 08:01:48;;;;;;;7.10;5.40;;;1.20;99.90;;;;;;4895710;29;20203;-71
2023/12/03 08:04:16;;;;;;;6.17;5.40;;;1.30;99.90;;;;;;4895620;29;20283;-68
2023/12/03 08:06:44;;;;;;;9.57;5.70;;;1.40;99.90;;;;;;4895453;29;20227;-69
2023/12/03 08:09:14;;;;;;;8.63;6.00;;;1.40;99.90;;;;;;4895173;29;20231;-71
2023/12/03 08:11:43;;;;;;;6.43;5.60;;;1.30;99.90;;;;;;4893536;29;20196;-64
2023/12/03 08:14:11;;;;;;;7.33;6.00;;;1.30;99.90;;;;;;4895607;29;20208;-69
2023/12/03 08:16:39;;;;;;;6.23;5.33;;;1.30;99.90;;;;;;4892293;29;20220;-67
2023/12/03 08:19:08;;;;;;;7.00;5.43;;;1.30;99.90;;;;;;4885487;29;20222;-69
2023/12/03 08:21:37;;;;;;;5.47;4.73;;;1.30;99.90;;;;;;4895588;29;20203;-69
2023/12/03 08:24:06;;;;;;;5.87;4.90;;;1.30;99.90;;;;;;4895655;29;20260;-69
2023/12/03 08:26:36;;;;;;;7.13;5.33;;;1.30;99.90;;;;;;4895594;29;20730;-69
2023/12/03 08:29:05;;;;;;;8.30;5.93;;;1.40;99.90;;;;;;4895054;29;20227;-69
2023/12/03 08:31:33;;;;;;;6.77;5.43;;;1.30;99.90;;;;;;4894585;29;20208;-69
2023/12/03 08:34:02;;;;;;;7.40;5.90;;;1.30;99.90;;;;;;4895376;29;20737;-69
2023/12/03 08:36:31;;;;;;;8.60;6.87;;;1.30;99.90;;;;;;4895394;29;20287;-69
2023/12/03 08:39:01;;;;;;;10.10;7.17;;;1.40;99.90;;;;;;4895173;29;20582;-68
2023/12/03 08:41:29;;;;;;;8.53;6.53;;;1.30;99.90;;;;;;4894761;29;20286;-68
2023/12/03 08:44:04;;;;;;;8.27;6.90;;;1.20;99.90;;;;;;4894919;29;20204;-66
2023/12/03 08:46:33;;;;;;;9.37;6.33;;;1.20;99.90;;;;;;4894834;29;20201;-68
2023/12/03 08:49:01;;;;;;;5.93;5.20;;;1.20;99.90;;;;;;4895096;29;20271;-69
2023/12/03 08:51:29;;;;;;;6.87;5.40;;;1.30;99.90;;;;;;4894947;29;20323;-71
2023/12/03 08:53:58;;;;;;;6.77;5.10;;;1.50;99.90;;;;;;4895061;29;20262;-70
2023/12/03 08:56:26;;;;;;;7.57;5.73;;;1.70;99.90;;;;;;4895103;29;20683;-70
2023/12/03 08:58:54;;;;;;;9.90;5.80;;;1.70;99.90;;;;;;4895106;29;20794;-70
2023/12/03 09:01:24;;;;;;;8.77;5.80;;;1.70;99.90;;;;;;4894030;29;20210;-69
2023/12/03 09:03:52;;;;;;;7.63;5.47;;;1.70;99.90;;;;;;4894911;29;20203;-66
2023/12/03 09:06:21;;;;;;;9.37;6.67;;;1.60;99.90;;;;;;4894888;29;20207;-65
2023/12/03 09:08:50;;;;;;;10.07;7.03;;;1.50;99.90;;;;;;4894361;29;20278;-63
2023/12/03 09:11:18;;;;;;;8.30;6.07;;;1.30;99.90;;;;;;4893991;29;20214;-64
2023/12/03 09:13:46;;;;;;;9.80;6.27;;;1.30;99.90;;;;;;4894670;29;20702;-66
2023/12/03 09:16:15;;;;;;;10.33;6.73;;;1.30;99.90;;;;;;4894037;29;20250;-69
2023/12/03 09:18:46;;;;;;;8.53;6.60;;;1.20;99.90;;;;;;4894434;29;20274;-65
2023/12/03 09:21:16;;;;;;;9.30;6.17;;;1.30;99.90;;;;;;4894276;29;20550;-67
2023/12/03 09:23:44;;;;;;;9.60;6.33;;;1.50;99.90;;;;;;4894017;29;20270;-63
2023/12/03 09:26:13;;;;;;;10.27;6.80;;;1.50;99.90;;;;;;4894314;29;20209;-69
2023/12/03 09:28:41;;;;;;;7.80;5.97;;;1.40;99.90;;;;;;4894036;29;20231;-68
2023/12/03 09:31:11;;;;;;;8.67;6.80;;;1.70;99.90;;;;;;4893597;29;20283;-67
2023/12/03 09:33:39;;;;;;;10.60;7.33;;;1.90;99.90;;;;;;4894400;29;20205;-70
2023/12/03 09:36:10;;;;;;;12.67;8.13;;;1.90;99.90;;;;;;4894158;29;20217;-70
2023/12/03 09:38:38;;;;;;;12.63;8.40;;;1.90;99.90;;;;;;4894358;29;20301;-71
2023/12/03 09:41:13;;;;;;;12.03;8.17;;;1.90;99.90;;;;;;4894107;29;20205;-68
2023/12/03 09:43:46;;;;;;;15.63;9.23;;;1.90;99.90;;;;;;4893850;29;20204;-66
2023/12/03 09:46:15;;;;;;;14.20;8.93;;;1.80;99.90;;;;;;4894123;29;20199;-70
2023/12/03 09:48:44;;;;;;;10.93;7.83;;;1.80;99.90;;;;;;4894245;29;20216;-65
2023/12/03 09:51:14;;;;;;;12.87;10.13;;;1.60;99.90;;;;;;4894122;29;20203;-67
2023/12/03 09:53:45;;;;;;;8.60;7.70;;;1.60;99.90;;;;;;4894296;29;20200;-60
2023/12/03 09:56:14;;;;;;;12.20;7.30;;;1.60;99.90;;;;;;4894262;29;20291;-61
2023/12/03 09:58:46;;;;;;;8.53;6.47;;;1.50;99.90;;;;;;4893349;29;20287;-64
2023/12/03 10:01:15;;;;;;;7.73;5.73;;;1.40;99.90;;;;;;4893375;29;20582;-65
2023/12/03 10:03:43;;;;;;;7.40;6.33;;;1.40;99.90;;;;;;4893964;29;20255;-58
2023/12/03 10:06:16;;;;;;;7.27;6.33;;;1.40;99.90;;;;;;4894083;29;20211;-63
2023/12/03 10:08:45;;;;;;;9.30;6.37;;;1.20;99.90;;;;;;4893915;29;20731;-64
2023/12/03 10:11:17;;;;;;;9.70;6.70;;;1.20;99.90;;;;;;4893965;29;20584;-61
2023/12/03 10:13:45;;;;;;;9.50;6.80;;;1.10;99.90;;;;;;4893392;29;20285;-70
2023/12/03 10:16:14;;;;;;;8.23;5.83;;;1.10;99.90;;;;;;4893540;29;20237;-64
2023/12/03 10:18:44;;;;;;;8.70;6.50;;;1.10;99.90;;;;;;4893828;29;20678;-62
2023/12/03 10:21:14;;;;;;;8.83;6.80;;;1.10;99.90;;;;;;4893526;29;20208;-62
2023/12/03 10:23:57;;;;;;;9.93;6.70;;;1.10;99.90;;;;;;4893668;29;20226;-62
2023/12/03 10:26:26;;;;;;;10.87;8.13;;;1.20;99.90;;;;;;4894037;29;20218;-62
2023/12/03 10:28:54;;;;;;;21.57;13.43;;;1.40;99.90;;;;;;4893133;29;20581;-65
2023/12/03 10:31:23;;;;;;;16.97;11.37;;;1.40;99.90;;;;;;4893137;29;20582;-64
2023/12/03 10:33:53;;;;;;;8.00;6.67;;;1.30;99.90;;;;;;4893676;29;20204;-60
2023/12/03 10:36:23;;;;;;;9.67;7.17;;;1.40;99.90;;;;;;4896861;29;20290;-63
2023/12/03 10:38:51;;;;;;;10.73;8.20;;;1.50;99.90;;;;;;4897116;29;20294;-63
2023/12/03 10:41:19;;;;;;;8.93;6.87;;;1.80;99.90;;;;;;4896481;29;20215;-63
2023/12/03 10:43:48;;;;;;;7.90;6.60;;;1.90;99.90;;;;;;4897156;29;20214;-61
2023/12/03 10:46:16;;;;;;;12.07;7.67;;;2.10;99.90;;;;;;4896982;29;20201;-66
2023/12/03 10:48:47;;;;;;;8.93;7.40;;;2.30;99.90;;;;;;4897017;29;20690;-63
2023/12/03 10:51:15;;;;;;;8.83;6.87;;;2.50;99.90;;;;;;4896860;29;20288;-66
2023/12/03 10:53:45;;;;;;;12.87;7.83;;;2.60;99.90;;;;;;4896787;29;20610;-67
2023/12/03 10:56:16;;;;;;;30.47;16.77;;;2.70;99.90;;;;;;4896736;29;20239;-65
2023/12/03 10:58:46;;;;;;;12.00;8.47;;;2.80;99.90;;;;;;4896938;29;20212;-60
2023/12/03 11:01:21;;;;;;;10.23;7.20;;;2.60;99.90;;;;;;4896465;29;20206;-64
2023/12/03 11:03:56;;;;;;;13.67;7.57;;;2.50;99.90;;;;;;4896717;29;20257;-60
2023/12/03 11:06:26;;;;;;;12.40;8.47;;;2.40;99.90;;;;;;4896469;29;20296;-65
2023/12/03 11:08:56;;;;;;;10.90;8.10;;;2.40;99.90;;;;;;4896529;29;20248;-67
2023/12/03 11:11:25;;;;;;;9.80;7.13;;;2.30;99.90;;;;;;4879114;29;20234;-61
2023/12/03 11:13:56;;;;;;;12.10;7.73;;;2.30;99.90;;;;;;4896788;29;20220;-64
2023/12/03 11:16:28;;;;;;;8.17;7.03;;;2.20;99.90;;;;;;4896522;29;20196;-66
2023/12/03 11:19:00;;;;;;;10.07;6.77;;;2.20;99.90;;;;;;4889299;29;20221;-65
2023/12/03 11:21:38;;;;;;;10.80;7.57;;;2.20;99.90;;;;;;4880871;29;20312;-68
2023/12/03 11:24:37;;;;;;;10.70;7.00;;;2.20;99.90;;;;;;4877777;29;20214;-63
2023/12/03 11:27:06;;;;;;;6.97;6.23;;;2.10;99.90;;;;;;4801576;29;20318;-65
2023/12/03 11:29:48;;;;;;;10.30;6.57;;;2.20;99.90;;;;;;4801839;29;20239;-61
2023/12/03 11:32:17;;;;;;;10.03;6.17;;;2.20;99.90;;;;;;4800750;29;20219;-62
2023/12/03 11:34:54;;;;;;;10.37;6.33;;;2.20;99.90;;;;;;4802628;29;20208;-66
2023/12/03 11:37:23;;;;;;;9.30;7.23;;;2.00;99.90;;;;;;4819965;29;20220;-59
2023/12/03 11:39:56;;;;;;;8.67;6.10;;;2.00;99.90;;;;;;4819905;29;20230;-59
2023/12/03 11:42:25;;;;;;;9.17;5.97;;;2.00;99.90;;;;;;4819697;29;20265;-69
2023/12/03 11:45:19;;;;;;;9.67;7.27;;;2.20;99.90;;;;;;4819770;29;20690;-61
2023/12/03 11:48:09;;;;;;;8.93;7.33;;;2.20;99.90;;;;;;4819128;29;20203;-63
2023/12/03 11:50:39;;;;;;;13.30;8.57;;;2.30;99.90;;;;;;4819238;29;20234;-62
2023/12/03 11:53:09;;;;;;;17.87;11.53;;;2.40;99.90;;;;;;4819106;29;20208;-62
2023/12/03 11:55:41;;;;;;;30.83;17.13;;;2.50;99.90;;;;;;4819109;29;20223;-60
2023/12/03 11:58:10;;;;;;;21.00;12.87;;;2.60;99.90;;;;;;4818894;29;20280;-62
2023/12/03 12:00:40;;;;;;;17.77;12.87;;;2.80;99.90;;;;;;4818642;29;20208;-67
2023/12/03 12:03:09;;;;;;;16.53;11.73;;;2.90;99.90;;;;;;4823158;29;20210;-63
2023/12/03 12:05:45;;;;;;;19.07;13.10;;;2.90;99.90;;;;;;4894966;29;20234;-66
2023/12/03 12:08:19;;;;;;;23.87;13.97;;;2.80;99.90;;;;;;4894944;29;20337;-64
2023/12/03 12:10:50;;;;;;;22.87;16.23;;;2.80;99.90;;;;;;4894987;29;20980;-67
2023/12/03 12:13:20;;;;;;;17.17;11.97;;;2.80;99.90;;;;;;4895041;29;20205;-62
2023/12/03 12:15:48;;;;;;;18.70;12.67;;;2.50;99.90;;;;;;4895144;29;20208;-63
2023/12/03 12:18:19;;;;;;;18.10;11.50;;;2.50;99.90;;;;;;4894991;29;20742;-60
2023/12/03 12:20:48;;;;;;;14.87;10.70;;;2.30;99.90;;;;;;4895036;29;20222;-61
2023/12/03 12:23:16;;;;;;;15.40;10.70;;;2.30;99.90;;;;;;4894723;29;20741;-61
2023/12/03 12:25:45;;;;;;;12.07;8.77;;;2.20;99.90;;;;;;4894683;29;20229;-64
2023/12/03 12:28:15;;;;;;;13.23;9.43;;;2.30;99.90;;;;;;4894622;29;20204;-63
2023/12/03 12:30:43;;;;;;;11.30;9.23;;;2.20;99.90;;;;;;4894314;29;20572;-63
2023/12/03 12:33:11;;;;;;;13.67;10.40;;;2.20;99.90;;;;;;4894350;29;20230;-61
2023/12/03 12:35:42;;;;;;;14.17;10.50;;;2.30;99.90;;;;;;4894433;29;20683;-62
2023/12/03 12:38:10;;;;;;;15.57;11.63;;;2.40;99.90;;;;;;4894560;29;20203;-61
2023/12/03 12:40:53;;;;;;;18.37;10.97;;;2.30;99.90;;;;;;4894708;29;20638;-66
2023/12/03 12:43:22;;;;;;;15.63;11.20;;;2.30;99.90;;;;;;4894528;29;20260;-64
2023/12/03 12:45:51;;;;;;;17.43;11.40;;;2.20;99.90;;;;;;4887791;29;20214;-60
2023/12/03 12:48:24;;;;;;;17.73;12.47;;;2.20;99.90;;;;;;4877945;29;20236;-62
2023/12/03 12:50:53;;;;;;;16.73;11.70;;;2.10;99.90;;;;;;4876264;29;20311;-59
2023/12/03 12:53:21;;;;;;;16.93;12.40;;;2.10;99.90;;;;;;4876128;29;20208;-68
2023/12/03 12:55:51;;;;;;;17.37;11.70;;;2.20;99.90;;;;;;4875542;29;20265;-61
2023/12/03 12:58:19;;;;;;;18.50;12.47;;;2.20;99.90;;;;;;4873721;29;20211;-60
2023/12/03 13:00:49;;;;;;;23.90;14.40;;;2.30;99.90;;;;;;4875632;29;20217;-61